sensor_id;sensor_type;location;lat;lon;timestamp;P1;durP1;ratioP1;P2;durP2;ratioP2
2474;SDS011;1248;48.694;10.160;2022-07-29T00:00:09;17.33;;;13.70;;
2474;SDS011;1248;48.694;10.160;2022-07-29T00:02:37;15.53;;;14.03;;
2474;SDS011;1248;48.694;10.160;2022-07-29T00:05:04;15.83;;;11.43;;
2474;SDS011;1248;48.694;10.160;2022-07-29T00:07:32;14.30;;;12.80;;
2474;SDS011;1248;48.694;10.160;2022-07-29T00:09:59;14.40;;;12.90;;
2474;SDS011;1248;48.694;10.160;2022-07-29T00:12:26;14.57;;;11.20;;
2474;SDS011;1248;48.694;10.160;2022-07-29T00:14:53;17.87;;;12.40;;
2474;SDS011;1248;48.694;10.160;2022-07-29T00:17:22;14.83;;;13.27;;
2474;SDS011;1248;48.694;10.160;2022-07-29T00:19:49;14.30;;;12.70;;
2474;SDS011;1248;48.694;10.160;2022-07-29T00:22:16;16.70;;;13.90;;
2474;SDS011;1248;48.694;10.160;2022-07-29T00:24:43;19.47;;;14.33;;
2474;SDS011;1248;48.694;10.160;2022-07-29T00:27:11;20.23;;;15.20;;
2474;SDS011;1248;48.694;10.160;2022-07-29T00:29:38;18.73;;;14.80;;
2474;SDS011;1248;48.694;10.160;2022-07-29T00:32:05;16.50;;;14.80;;
2474;SDS011;1248;48.694;10.160;2022-07-29T00:34:34;16.70;;;14.97;;
2474;SDS011;1248;48.694;10.160;2022-07-29T00:37:18;19.23;;;15.57;;
2474;SDS011;1248;48.694;10.160;2022-07-29T00:39:45;19.80;;;15.70;;
2474;SDS011;1248;48.694;10.160;2022-07-29T00:42:12;22.93;;;15.40;;
2474;SDS011;1248;48.694;10.160;2022-07-29T00:44:40;20.87;;;16.30;;
2474;SDS011;1248;48.694;10.160;2022-07-29T00:47:08;19.77;;;16.03;;
2474;SDS011;1248;48.694;10.160;2022-07-29T00:49:37;17.27;;;15.27;;
2474;SDS011;1248;48.694;10.160;2022-07-29T00:52:05;18.80;;;16.73;;
2474;SDS011;1248;48.694;10.160;2022-07-29T00:54:32;21.03;;;17.37;;
2474;SDS011;1248;48.694;10.160;2022-07-29T00:57:00;17.37;;;15.67;;
2474;SDS011;1248;48.694;10.160;2022-07-29T00:59:27;18.00;;;16.03;;
2474;SDS011;1248;48.694;10.160;2022-07-29T01:01:55;17.70;;;15.77;;
2474;SDS011;1248;48.694;10.160;2022-07-29T01:04:22;17.87;;;16.23;;
2474;SDS011;1248;48.694;10.160;2022-07-29T01:06:50;19.40;;;15.50;;
2474;SDS011;1248;48.694;10.160;2022-07-29T01:09:17;17.47;;;15.20;;
2474;SDS011;1248;48.694;10.160;2022-07-29T01:11:45;17.10;;;15.33;;
2474;SDS011;1248;48.694;10.160;2022-07-29T01:14:13;14.90;;;12.97;;
2474;SDS011;1248;48.694;10.160;2022-07-29T01:16:42;12.87;;;11.63;;
2474;SDS011;1248;48.694;10.160;2022-07-29T01:19:17;14.33;;;12.93;;
2474;SDS011;1248;48.694;10.160;2022-07-29T01:21:57;15.50;;;13.07;;
2474;SDS011;1248;48.694;10.160;2022-07-29T01:24:46;14.17;;;11.70;;
2474;SDS011;1248;48.694;10.160;2022-07-29T01:27:26;15.40;;;13.87;;
2474;SDS011;1248;48.694;10.160;2022-07-29T01:30:04;13.70;;;12.33;;
2474;SDS011;1248;48.694;10.160;2022-07-29T01:32:33;14.23;;;12.70;;
2474;SDS011;1248;48.694;10.160;2022-07-29T01:35:03;13.17;;;11.20;;
2474;SDS011;1248;48.694;10.160;2022-07-29T01:37:33;11.60;;;10.60;;
2474;SDS011;1248;48.694;10.160;2022-07-29T01:40:05;11.87;;;10.77;;
2474;SDS011;1248;48.694;10.160;2022-07-29T01:42:36;13.03;;;11.73;;
2474;SDS011;1248;48.694;10.160;2022-07-29T01:45:08;14.00;;;11.10;;
2474;SDS011;1248;48.694;10.160;2022-07-29T01:47:38;13.73;;;11.43;;
2474;SDS011;1248;48.694;10.160;2022-07-29T01:50:10;12.30;;;10.97;;
2474;SDS011;1248;48.694;10.160;2022-07-29T01:52:39;11.70;;;10.60;;
2474;SDS011;1248;48.694;10.160;2022-07-29T01:55:11;13.40;;;12.20;;
2474;SDS011;1248;48.694;10.160;2022-07-29T01:57:40;11.57;;;10.47;;
2474;SDS011;1248;48.694;10.160;2022-07-29T02:00:12;11.50;;;10.17;;
2474;SDS011;1248;48.694;10.160;2022-07-29T02:02:40;13.20;;;10.67;;
2474;SDS011;1248;48.694;10.160;2022-07-29T02:05:10;13.63;;;11.70;;
2474;SDS011;1248;48.694;10.160;2022-07-29T02:07:37;14.63;;;13.00;;
2474;SDS011;1248;48.694;10.160;2022-07-29T02:10:06;14.07;;;12.67;;
2474;SDS011;1248;48.694;10.160;2022-07-29T02:12:34;17.40;;;12.53;;
2474;SDS011;1248;48.694;10.160;2022-07-29T02:15:02;15.80;;;13.10;;
2474;SDS011;1248;48.694;10.160;2022-07-29T02:17:35;15.47;;;12.27;;
2474;SDS011;1248;48.694;10.160;2022-07-29T02:20:05;12.53;;;11.23;;
2474;SDS011;1248;48.694;10.160;2022-07-29T02:22:35;13.80;;;11.20;;
2474;SDS011;1248;48.694;10.160;2022-07-29T02:25:05;13.20;;;11.90;;
2474;SDS011;1248;48.694;10.160;2022-07-29T02:27:33;13.10;;;11.13;;
2474;SDS011;1248;48.694;10.160;2022-07-29T02:30:01;12.97;;;11.77;;
2474;SDS011;1248;48.694;10.160;2022-07-29T02:32:30;15.07;;;12.80;;
2474;SDS011;1248;48.694;10.160;2022-07-29T02:34:59;15.70;;;13.60;;
2474;SDS011;1248;48.694;10.160;2022-07-29T02:37:27;14.70;;;12.97;;
2474;SDS011;1248;48.694;10.160;2022-07-29T02:39:54;15.50;;;12.90;;
2474;SDS011;1248;48.694;10.160;2022-07-29T02:42:22;18.10;;;14.23;;
2474;SDS011;1248;48.694;10.160;2022-07-29T02:44:50;18.23;;;13.83;;
2474;SDS011;1248;48.694;10.160;2022-07-29T02:47:18;15.90;;;12.83;;
2474;SDS011;1248;48.694;10.160;2022-07-29T02:49:48;14.03;;;12.77;;
2474;SDS011;1248;48.694;10.160;2022-07-29T02:52:21;13.30;;;12.00;;
2474;SDS011;1248;48.694;10.160;2022-07-29T02:54:52;12.70;;;11.30;;
2474;SDS011;1248;48.694;10.160;2022-07-29T02:57:38;13.37;;;11.97;;
2474;SDS011;1248;48.694;10.160;2022-07-29T03:00:08;14.20;;;11.47;;
2474;SDS011;1248;48.694;10.160;2022-07-29T03:02:38;14.83;;;11.10;;
2474;SDS011;1248;48.694;10.160;2022-07-29T03:05:08;13.03;;;11.10;;
2474;SDS011;1248;48.694;10.160;2022-07-29T03:07:37;15.20;;;12.20;;
2474;SDS011;1248;48.694;10.160;2022-07-29T03:10:06;13.90;;;12.50;;
2474;SDS011;1248;48.694;10.160;2022-07-29T03:12:34;14.40;;;12.93;;
2474;SDS011;1248;48.694;10.160;2022-07-29T03:15:02;15.70;;;14.10;;
2474;SDS011;1248;48.694;10.160;2022-07-29T03:17:29;15.03;;;13.37;;
2474;SDS011;1248;48.694;10.160;2022-07-29T03:19:57;16.73;;;14.83;;
2474;SDS011;1248;48.694;10.160;2022-07-29T03:22:25;17.60;;;14.77;;
2474;SDS011;1248;48.694;10.160;2022-07-29T03:24:53;15.20;;;13.63;;
2474;SDS011;1248;48.694;10.160;2022-07-29T03:27:20;16.17;;;14.27;;
2474;SDS011;1248;48.694;10.160;2022-07-29T03:29:47;14.97;;;12.83;;
2474;SDS011;1248;48.694;10.160;2022-07-29T03:32:14;14.00;;;12.50;;
2474;SDS011;1248;48.694;10.160;2022-07-29T03:34:41;13.13;;;11.60;;
2474;SDS011;1248;48.694;10.160;2022-07-29T03:37:08;14.23;;;12.77;;
2474;SDS011;1248;48.694;10.160;2022-07-29T03:39:37;15.17;;;13.67;;
2474;SDS011;1248;48.694;10.160;2022-07-29T03:42:07;13.10;;;11.80;;
2474;SDS011;1248;48.694;10.160;2022-07-29T03:44:35;16.50;;;13.43;;
2474;SDS011;1248;48.694;10.160;2022-07-29T03:47:03;12.80;;;11.50;;
2474;SDS011;1248;48.694;10.160;2022-07-29T03:49:31;15.20;;;12.97;;
2474;SDS011;1248;48.694;10.160;2022-07-29T03:51:59;17.47;;;13.47;;
2474;SDS011;1248;48.694;10.160;2022-07-29T03:54:26;14.50;;;13.10;;
2474;SDS011;1248;48.694;10.160;2022-07-29T03:56:54;14.50;;;13.00;;
2474;SDS011;1248;48.694;10.160;2022-07-29T03:59:23;16.90;;;13.97;;
2474;SDS011;1248;48.694;10.160;2022-07-29T04:01:50;15.00;;;13.47;;
2474;SDS011;1248;48.694;10.160;2022-07-29T04:04:18;16.23;;;13.50;;
2474;SDS011;1248;48.694;10.160;2022-07-29T04:06:45;20.50;;;13.07;;
2474;SDS011;1248;48.694;10.160;2022-07-29T04:09:13;15.77;;;13.70;;
2474;SDS011;1248;48.694;10.160;2022-07-29T04:11:40;14.27;;;12.63;;
2474;SDS011;1248;48.694;10.160;2022-07-29T04:14:07;14.63;;;13.07;;
2474;SDS011;1248;48.694;10.160;2022-07-29T04:16:36;13.20;;;11.80;;
2474;SDS011;1248;48.694;10.160;2022-07-29T04:19:03;18.10;;;14.20;;
2474;SDS011;1248;48.694;10.160;2022-07-29T04:21:30;18.50;;;14.27;;
2474;SDS011;1248;48.694;10.160;2022-07-29T04:23:57;15.30;;;13.70;;
2474;SDS011;1248;48.694;10.160;2022-07-29T04:26:24;18.23;;;13.60;;
2474;SDS011;1248;48.694;10.160;2022-07-29T04:28:51;15.00;;;13.43;;
2474;SDS011;1248;48.694;10.160;2022-07-29T04:31:18;16.73;;;14.10;;
2474;SDS011;1248;48.694;10.160;2022-07-29T04:33:46;13.73;;;12.30;;
2474;SDS011;1248;48.694;10.160;2022-07-29T04:36:13;17.83;;;13.73;;
2474;SDS011;1248;48.694;10.160;2022-07-29T04:38:41;17.70;;;14.53;;
2474;SDS011;1248;48.694;10.160;2022-07-29T04:41:08;15.00;;;13.47;;
2474;SDS011;1248;48.694;10.160;2022-07-29T04:43:35;17.37;;;13.53;;
2474;SDS011;1248;48.694;10.160;2022-07-29T04:46:02;16.90;;;13.23;;
2474;SDS011;1248;48.694;10.160;2022-07-29T04:48:29;18.27;;;13.80;;
2474;SDS011;1248;48.694;10.160;2022-07-29T04:50:58;15.40;;;13.40;;
2474;SDS011;1248;48.694;10.160;2022-07-29T04:53:25;21.80;;;13.60;;
2474;SDS011;1248;48.694;10.160;2022-07-29T04:55:52;18.80;;;14.70;;
2474;SDS011;1248;48.694;10.160;2022-07-29T04:58:19;15.70;;;13.53;;
2474;SDS011;1248;48.694;10.160;2022-07-29T05:00:48;20.10;;;14.30;;
2474;SDS011;1248;48.694;10.160;2022-07-29T05:03:15;17.30;;;14.80;;
2474;SDS011;1248;48.694;10.160;2022-07-29T05:05:42;19.83;;;15.83;;
2474;SDS011;1248;48.694;10.160;2022-07-29T05:08:11;21.83;;;16.27;;
2474;SDS011;1248;48.694;10.160;2022-07-29T05:10:38;18.70;;;14.93;;
2474;SDS011;1248;48.694;10.160;2022-07-29T05:13:05;20.70;;;16.80;;
2474;SDS011;1248;48.694;10.160;2022-07-29T05:15:33;15.53;;;13.93;;
2474;SDS011;1248;48.694;10.160;2022-07-29T05:18:00;17.97;;;15.37;;
2474;SDS011;1248;48.694;10.160;2022-07-29T05:20:28;15.87;;;14.27;;
2474;SDS011;1248;48.694;10.160;2022-07-29T05:22:56;16.83;;;14.90;;
2474;SDS011;1248;48.694;10.160;2022-07-29T05:25:25;15.70;;;14.10;;
2474;SDS011;1248;48.694;10.160;2022-07-29T05:27:52;16.73;;;14.67;;
2474;SDS011;1248;48.694;10.160;2022-07-29T05:30:20;15.47;;;13.87;;
2474;SDS011;1248;48.694;10.160;2022-07-29T05:32:48;15.67;;;14.00;;
2474;SDS011;1248;48.694;10.160;2022-07-29T05:35:15;17.93;;;14.23;;
2474;SDS011;1248;48.694;10.160;2022-07-29T05:37:42;15.77;;;14.17;;
2474;SDS011;1248;48.694;10.160;2022-07-29T05:40:09;16.17;;;13.10;;
2474;SDS011;1248;48.694;10.160;2022-07-29T05:42:38;15.90;;;13.47;;
2474;SDS011;1248;48.694;10.160;2022-07-29T05:45:06;15.10;;;13.60;;
2474;SDS011;1248;48.694;10.160;2022-07-29T05:47:34;17.10;;;14.57;;
2474;SDS011;1248;48.694;10.160;2022-07-29T05:50:01;16.90;;;12.90;;
2474;SDS011;1248;48.694;10.160;2022-07-29T05:52:28;13.37;;;11.87;;
2474;SDS011;1248;48.694;10.160;2022-07-29T05:54:55;14.33;;;12.93;;
2474;SDS011;1248;48.694;10.160;2022-07-29T05:57:23;15.50;;;14.07;;
2474;SDS011;1248;48.694;10.160;2022-07-29T05:59:52;15.07;;;13.57;;
2474;SDS011;1248;48.694;10.160;2022-07-29T06:02:19;16.53;;;13.93;;
2474;SDS011;1248;48.694;10.160;2022-07-29T06:04:46;16.33;;;12.87;;
2474;SDS011;1248;48.694;10.160;2022-07-29T06:07:14;13.93;;;12.43;;
2474;SDS011;1248;48.694;10.160;2022-07-29T06:09:41;15.50;;;13.07;;
2474;SDS011;1248;48.694;10.160;2022-07-29T06:12:09;16.57;;;12.23;;
2474;SDS011;1248;48.694;10.160;2022-07-29T06:14:36;18.47;;;16.30;;
2474;SDS011;1248;48.694;10.160;2022-07-29T06:17:05;20.20;;;17.90;;
2474;SDS011;1248;48.694;10.160;2022-07-29T06:19:33;23.73;;;20.30;;
2474;SDS011;1248;48.694;10.160;2022-07-29T06:22:00;22.47;;;20.03;;
2474;SDS011;1248;48.694;10.160;2022-07-29T06:24:28;22.30;;;19.90;;
2474;SDS011;1248;48.694;10.160;2022-07-29T06:26:55;23.90;;;18.97;;
2474;SDS011;1248;48.694;10.160;2022-07-29T06:29:22;23.23;;;19.13;;
2474;SDS011;1248;48.694;10.160;2022-07-29T06:31:49;24.27;;;19.50;;
2474;SDS011;1248;48.694;10.160;2022-07-29T06:34:18;26.00;;;20.00;;
2474;SDS011;1248;48.694;10.160;2022-07-29T06:36:45;22.47;;;19.40;;
2474;SDS011;1248;48.694;10.160;2022-07-29T06:39:12;26.03;;;19.57;;
2474;SDS011;1248;48.694;10.160;2022-07-29T06:41:40;25.33;;;19.87;;
2474;SDS011;1248;48.694;10.160;2022-07-29T06:44:07;26.67;;;19.80;;
2474;SDS011;1248;48.694;10.160;2022-07-29T06:46:34;23.67;;;18.47;;
2474;SDS011;1248;48.694;10.160;2022-07-29T06:49:01;21.67;;;16.57;;
2474;SDS011;1248;48.694;10.160;2022-07-29T06:51:30;24.90;;;17.97;;
2474;SDS011;1248;48.694;10.160;2022-07-29T06:53:57;22.00;;;17.83;;
2474;SDS011;1248;48.694;10.160;2022-07-29T06:56:24;23.17;;;19.43;;
2474;SDS011;1248;48.694;10.160;2022-07-29T06:58:51;27.00;;;18.60;;
2474;SDS011;1248;48.694;10.160;2022-07-29T07:01:18;25.30;;;18.43;;
2474;SDS011;1248;48.694;10.160;2022-07-29T07:03:46;27.37;;;18.83;;
2474;SDS011;1248;48.694;10.160;2022-07-29T07:06:13;20.07;;;17.27;;
2474;SDS011;1248;48.694;10.160;2022-07-29T07:08:41;21.37;;;17.97;;
2474;SDS011;1248;48.694;10.160;2022-07-29T07:11:08;23.37;;;17.90;;
2474;SDS011;1248;48.694;10.160;2022-07-29T07:13:36;21.50;;;17.87;;
2474;SDS011;1248;48.694;10.160;2022-07-29T07:16:03;22.97;;;18.27;;
2474;SDS011;1248;48.694;10.160;2022-07-29T07:18:31;23.43;;;18.80;;
2474;SDS011;1248;48.694;10.160;2022-07-29T07:20:58;19.97;;;16.87;;
2474;SDS011;1248;48.694;10.160;2022-07-29T07:23:25;19.57;;;17.53;;
2474;SDS011;1248;48.694;10.160;2022-07-29T07:25:53;22.97;;;17.90;;
2474;SDS011;1248;48.694;10.160;2022-07-29T07:28:20;28.17;;;17.23;;
2474;SDS011;1248;48.694;10.160;2022-07-29T07:30:47;19.70;;;16.70;;
2474;SDS011;1248;48.694;10.160;2022-07-29T07:33:14;18.83;;;16.93;;
2474;SDS011;1248;48.694;10.160;2022-07-29T07:35:41;23.73;;;18.50;;
2474;SDS011;1248;48.694;10.160;2022-07-29T07:38:09;24.90;;;20.00;;
2474;SDS011;1248;48.694;10.160;2022-07-29T07:40:36;23.17;;;18.70;;
2474;SDS011;1248;48.694;10.160;2022-07-29T07:43:05;21.57;;;18.50;;
2474;SDS011;1248;48.694;10.160;2022-07-29T07:45:32;20.20;;;18.20;;
2474;SDS011;1248;48.694;10.160;2022-07-29T07:47:59;21.90;;;19.40;;
2474;SDS011;1248;48.694;10.160;2022-07-29T07:50:26;19.70;;;17.40;;
2474;SDS011;1248;48.694;10.160;2022-07-29T07:52:54;20.13;;;16.87;;
2474;SDS011;1248;48.694;10.160;2022-07-29T07:55:23;18.73;;;16.90;;
2474;SDS011;1248;48.694;10.160;2022-07-29T07:57:50;18.63;;;15.90;;
2474;SDS011;1248;48.694;10.160;2022-07-29T08:00:18;17.70;;;15.90;;
2474;SDS011;1248;48.694;10.160;2022-07-29T08:02:45;19.00;;;17.00;;
2474;SDS011;1248;48.694;10.160;2022-07-29T08:05:13;22.57;;;17.30;;
2474;SDS011;1248;48.694;10.160;2022-07-29T08:07:42;19.53;;;17.70;;
2474;SDS011;1248;48.694;10.160;2022-07-29T08:10:10;20.73;;;17.27;;
2474;SDS011;1248;48.694;10.160;2022-07-29T08:12:37;21.07;;;19.07;;
2474;SDS011;1248;48.694;10.160;2022-07-29T08:15:05;18.77;;;16.80;;
2474;SDS011;1248;48.694;10.160;2022-07-29T08:17:35;17.10;;;15.30;;
2474;SDS011;1248;48.694;10.160;2022-07-29T08:20:02;15.67;;;14.07;;
2474;SDS011;1248;48.694;10.160;2022-07-29T08:22:29;15.30;;;13.67;;
2474;SDS011;1248;48.694;10.160;2022-07-29T08:24:56;17.10;;;14.23;;
2474;SDS011;1248;48.694;10.160;2022-07-29T08:27:24;17.13;;;15.20;;
2474;SDS011;1248;48.694;10.160;2022-07-29T08:29:51;14.63;;;12.60;;
2474;SDS011;1248;48.694;10.160;2022-07-29T08:32:18;14.43;;;13.03;;
2474;SDS011;1248;48.694;10.160;2022-07-29T08:34:47;13.00;;;11.50;;
2474;SDS011;1248;48.694;10.160;2022-07-29T08:37:14;14.90;;;13.40;;
2474;SDS011;1248;48.694;10.160;2022-07-29T08:39:41;15.97;;;12.67;;
2474;SDS011;1248;48.694;10.160;2022-07-29T08:42:08;14.63;;;13.10;;
2474;SDS011;1248;48.694;10.160;2022-07-29T08:44:35;14.50;;;13.10;;
2474;SDS011;1248;48.694;10.160;2022-07-29T08:47:02;14.37;;;12.97;;
2474;SDS011;1248;48.694;10.160;2022-07-29T08:49:30;18.60;;;13.97;;
2474;SDS011;1248;48.694;10.160;2022-07-29T08:52:00;14.47;;;12.50;;
2474;SDS011;1248;48.694;10.160;2022-07-29T08:54:28;14.77;;;11.60;;
2474;SDS011;1248;48.694;10.160;2022-07-29T08:56:55;14.63;;;11.83;;
2474;SDS011;1248;48.694;10.160;2022-07-29T08:59:24;12.10;;;10.90;;
2474;SDS011;1248;48.694;10.160;2022-07-29T09:01:52;10.93;;;9.73;;
2474;SDS011;1248;48.694;10.160;2022-07-29T09:04:20;12.20;;;9.60;;
2474;SDS011;1248;48.694;10.160;2022-07-29T09:06:48;11.60;;;10.40;;
2474;SDS011;1248;48.694;10.160;2022-07-29T09:09:17;10.03;;;9.03;;
2474;SDS011;1248;48.694;10.160;2022-07-29T09:11:44;10.60;;;9.60;;
2474;SDS011;1248;48.694;10.160;2022-07-29T09:14:12;10.57;;;9.10;;
2474;SDS011;1248;48.694;10.160;2022-07-29T09:16:47;11.10;;;10.00;;
2474;SDS011;1248;48.694;10.160;2022-07-29T09:19:22;11.27;;;9.00;;
2474;SDS011;1248;48.694;10.160;2022-07-29T09:21:50;10.90;;;10.00;;
2474;SDS011;1248;48.694;10.160;2022-07-29T09:24:36;10.03;;;8.53;;
2474;SDS011;1248;48.694;10.160;2022-07-29T09:27:08;10.67;;;8.33;;
2474;SDS011;1248;48.694;10.160;2022-07-29T09:29:47;9.60;;;8.07;;
2474;SDS011;1248;48.694;10.160;2022-07-29T09:32:22;8.07;;;7.37;;
2474;SDS011;1248;48.694;10.160;2022-07-29T09:34:49;8.83;;;7.90;;
2474;SDS011;1248;48.694;10.160;2022-07-29T09:37:25;8.90;;;8.00;;
2474;SDS011;1248;48.694;10.160;2022-07-29T09:39:54;8.60;;;7.80;;
2474;SDS011;1248;48.694;10.160;2022-07-29T09:42:27;10.60;;;7.80;;
2474;SDS011;1248;48.694;10.160;2022-07-29T09:44:54;7.50;;;6.80;;
2474;SDS011;1248;48.694;10.160;2022-07-29T09:47:21;8.20;;;7.33;;
2474;SDS011;1248;48.694;10.160;2022-07-29T09:49:52;8.00;;;7.07;;
2474;SDS011;1248;48.694;10.160;2022-07-29T09:52:20;8.70;;;6.90;;
2474;SDS011;1248;48.694;10.160;2022-07-29T09:54:47;7.87;;;7.10;;
2474;SDS011;1248;48.694;10.160;2022-07-29T09:57:25;9.83;;;7.57;;
2474;SDS011;1248;48.694;10.160;2022-07-29T09:59:56;8.83;;;6.97;;
2474;SDS011;1248;48.694;10.160;2022-07-29T10:02:27;8.73;;;7.93;;
2474;SDS011;1248;48.694;10.160;2022-07-29T10:04:56;7.90;;;6.77;;
2474;SDS011;1248;48.694;10.160;2022-07-29T10:07:23;10.03;;;9.20;;
2474;SDS011;1248;48.694;10.160;2022-07-29T10:09:54;7.60;;;7.00;;
2474;SDS011;1248;48.694;10.160;2022-07-29T10:12:22;8.20;;;7.00;;
2474;SDS011;1248;48.694;10.160;2022-07-29T10:14:51;8.90;;;8.07;;
2474;SDS011;1248;48.694;10.160;2022-07-29T10:17:18;7.30;;;6.67;;
2474;SDS011;1248;48.694;10.160;2022-07-29T10:19:45;12.37;;;8.20;;
2474;SDS011;1248;48.694;10.160;2022-07-29T10:22:14;12.20;;;7.17;;
2474;SDS011;1248;48.694;10.160;2022-07-29T10:24:41;10.00;;;7.57;;
2474;SDS011;1248;48.694;10.160;2022-07-29T10:27:08;9.43;;;8.43;;
2474;SDS011;1248;48.694;10.160;2022-07-29T10:29:36;13.23;;;8.10;;
2474;SDS011;1248;48.694;10.160;2022-07-29T10:35:07;7.57;;;6.97;;
2474;SDS011;1248;48.694;10.160;2022-07-29T10:37:45;8.87;;;6.83;;
2474;SDS011;1248;48.694;10.160;2022-07-29T10:40:22;9.07;;;6.53;;
2474;SDS011;1248;48.694;10.160;2022-07-29T10:43:25;8.07;;;6.70;;
2474;SDS011;1248;48.694;10.160;2022-07-29T10:45:55;9.07;;;7.40;;
2474;SDS011;1248;48.694;10.160;2022-07-29T10:48:24;8.80;;;7.90;;
2474;SDS011;1248;48.694;10.160;2022-07-29T10:50:52;11.30;;;7.80;;
2474;SDS011;1248;48.694;10.160;2022-07-29T10:53:20;7.47;;;6.80;;
2474;SDS011;1248;48.694;10.160;2022-07-29T10:55:49;10.47;;;7.80;;
2474;SDS011;1248;48.694;10.160;2022-07-29T10:58:17;11.30;;;7.70;;
2474;SDS011;1248;48.694;10.160;2022-07-29T11:00:45;9.40;;;7.50;;
2474;SDS011;1248;48.694;10.160;2022-07-29T11:06:13;9.57;;;7.50;;
2474;SDS011;1248;48.694;10.160;2022-07-29T11:08:41;8.63;;;7.93;;
2474;SDS011;1248;48.694;10.160;2022-07-29T11:14:06;10.73;;;9.37;;
2474;SDS011;1248;48.694;10.160;2022-07-29T11:19:35;10.03;;;9.03;;
2474;SDS011;1248;48.694;10.160;2022-07-29T11:22:07;9.70;;;8.57;;
2474;SDS011;1248;48.694;10.160;2022-07-29T11:24:35;11.33;;;8.70;;
2474;SDS011;1248;48.694;10.160;2022-07-29T11:27:12;6.60;;;6.00;;
2474;SDS011;1248;48.694;10.160;2022-07-29T11:29:47;5.97;;;5.10;;
2474;SDS011;1248;48.694;10.160;2022-07-29T11:32:18;5.70;;;4.37;;
2474;SDS011;1248;48.694;10.160;2022-07-29T11:34:48;7.53;;;3.93;;
2474;SDS011;1248;48.694;10.160;2022-07-29T11:37:20;7.80;;;4.53;;
2474;SDS011;1248;48.694;10.160;2022-07-29T11:40:09;6.33;;;4.60;;
2474;SDS011;1248;48.694;10.160;2022-07-29T11:42:39;8.67;;;5.00;;
2474;SDS011;1248;48.694;10.160;2022-07-29T11:45:08;6.20;;;4.10;;
2474;SDS011;1248;48.694;10.160;2022-07-29T11:47:36;6.20;;;4.00;;
2474;SDS011;1248;48.694;10.160;2022-07-29T11:50:08;4.63;;;3.40;;
2474;SDS011;1248;48.694;10.160;2022-07-29T11:52:36;3.77;;;3.37;;
2474;SDS011;1248;48.694;10.160;2022-07-29T11:55:09;6.00;;;3.70;;
2474;SDS011;1248;48.694;10.160;2022-07-29T11:57:44;6.90;;;4.37;;
2474;SDS011;1248;48.694;10.160;2022-07-29T12:00:12;5.53;;;3.60;;
2474;SDS011;1248;48.694;10.160;2022-07-29T12:02:48;4.97;;;3.58;;
2474;SDS011;1248;48.694;10.160;2022-07-29T12:05:17;4.07;;;3.70;;
2474;SDS011;1248;48.694;10.160;2022-07-29T12:07:47;5.40;;;4.00;;
2474;SDS011;1248;48.694;10.160;2022-07-29T12:10:15;5.53;;;3.83;;
2474;SDS011;1248;48.694;10.160;2022-07-29T12:12:42;6.97;;;4.27;;
2474;SDS011;1248;48.694;10.160;2022-07-29T12:15:13;5.80;;;3.87;;
2474;SDS011;1248;48.694;10.160;2022-07-29T12:17:43;7.00;;;4.67;;
2474;SDS011;1248;48.694;10.160;2022-07-29T12:20:10;8.03;;;4.60;;
2474;SDS011;1248;48.694;10.160;2022-07-29T12:22:40;9.90;;;4.17;;
2474;SDS011;1248;48.694;10.160;2022-07-29T12:25:10;7.87;;;4.07;;
2474;SDS011;1248;48.694;10.160;2022-07-29T12:27:39;7.23;;;5.37;;
2474;SDS011;1248;48.694;10.160;2022-07-29T12:30:09;5.77;;;3.53;;
2474;SDS011;1248;48.694;10.160;2022-07-29T12:32:38;5.57;;;3.60;;
2474;SDS011;1248;48.694;10.160;2022-07-29T12:35:07;3.83;;;3.50;;
2474;SDS011;1248;48.694;10.160;2022-07-29T12:37:35;8.80;;;3.80;;
2474;SDS011;1248;48.694;10.160;2022-07-29T12:40:06;6.53;;;4.50;;
2474;SDS011;1248;48.694;10.160;2022-07-29T12:42:34;6.40;;;4.50;;
2474;SDS011;1248;48.694;10.160;2022-07-29T12:45:01;6.77;;;5.00;;
2474;SDS011;1248;48.694;10.160;2022-07-29T12:47:29;9.53;;;5.43;;
2474;SDS011;1248;48.694;10.160;2022-07-29T12:50:08;7.17;;;5.97;;
2474;SDS011;1248;48.694;10.160;2022-07-29T12:52:36;9.00;;;5.50;;
2474;SDS011;1248;48.694;10.160;2022-07-29T12:55:03;5.33;;;4.83;;
2474;SDS011;1248;48.694;10.160;2022-07-29T12:57:43;8.00;;;5.33;;
2474;SDS011;1248;48.694;10.160;2022-07-29T13:00:12;7.77;;;5.40;;
2474;SDS011;1248;48.694;10.160;2022-07-29T13:02:40;5.63;;;5.13;;
2474;SDS011;1248;48.694;10.160;2022-07-29T13:05:09;7.80;;;5.30;;
2474;SDS011;1248;48.694;10.160;2022-07-29T13:07:37;7.00;;;5.13;;
2474;SDS011;1248;48.694;10.160;2022-07-29T13:10:12;8.20;;;5.70;;
2474;SDS011;1248;48.694;10.160;2022-07-29T13:15:33;7.17;;;5.77;;
2474;SDS011;1248;48.694;10.160;2022-07-29T13:18:00;6.80;;;6.20;;
2474;SDS011;1248;48.694;10.160;2022-07-29T13:20:28;9.00;;;5.60;;
2474;SDS011;1248;48.694;10.160;2022-07-29T13:22:57;6.73;;;6.00;;
2474;SDS011;1248;48.694;10.160;2022-07-29T13:25:26;9.63;;;6.07;;
2474;SDS011;1248;48.694;10.160;2022-07-29T13:27:54;7.13;;;6.03;;
2474;SDS011;1248;48.694;10.160;2022-07-29T13:30:21;10.20;;;7.17;;
2474;SDS011;1248;48.694;10.160;2022-07-29T13:32:49;6.83;;;6.10;;
2474;SDS011;1248;48.694;10.160;2022-07-29T13:35:17;9.17;;;7.50;;
2474;SDS011;1248;48.694;10.160;2022-07-29T13:37:44;8.40;;;7.60;;
2474;SDS011;1248;48.694;10.160;2022-07-29T13:40:12;9.93;;;7.97;;
2474;SDS011;1248;48.694;10.160;2022-07-29T13:42:42;8.67;;;7.87;;
2474;SDS011;1248;48.694;10.160;2022-07-29T13:45:09;8.80;;;7.90;;
2474;SDS011;1248;48.694;10.160;2022-07-29T13:47:37;10.63;;;7.83;;
2474;SDS011;1248;48.694;10.160;2022-07-29T13:50:05;8.83;;;8.00;;
2474;SDS011;1248;48.694;10.160;2022-07-29T13:52:35;11.80;;;9.13;;
2474;SDS011;1248;48.694;10.160;2022-07-29T13:55:03;9.60;;;8.70;;
2474;SDS011;1248;48.694;10.160;2022-07-29T13:57:32;11.20;;;9.30;;
2474;SDS011;1248;48.694;10.160;2022-07-29T14:00:00;9.17;;;8.40;;
2474;SDS011;1248;48.694;10.160;2022-07-29T14:02:28;9.80;;;8.80;;
2474;SDS011;1248;48.694;10.160;2022-07-29T14:04:55;11.50;;;9.57;;
2474;SDS011;1248;48.694;10.160;2022-07-29T14:07:22;10.20;;;8.90;;
2474;SDS011;1248;48.694;10.160;2022-07-29T14:09:49;9.33;;;8.43;;
2474;SDS011;1248;48.694;10.160;2022-07-29T14:12:16;9.30;;;8.50;;
2474;SDS011;1248;48.694;10.160;2022-07-29T14:14:44;7.53;;;6.67;;
2474;SDS011;1248;48.694;10.160;2022-07-29T14:17:12;7.87;;;6.93;;
2474;SDS011;1248;48.694;10.160;2022-07-29T14:19:40;8.37;;;7.57;;
2474;SDS011;1248;48.694;10.160;2022-07-29T14:22:07;9.87;;;7.73;;
2474;SDS011;1248;48.694;10.160;2022-07-29T14:24:35;9.30;;;8.40;;
2474;SDS011;1248;48.694;10.160;2022-07-29T14:27:03;10.77;;;8.90;;
2474;SDS011;1248;48.694;10.160;2022-07-29T14:29:30;8.83;;;7.90;;
2474;SDS011;1248;48.694;10.160;2022-07-29T14:31:58;10.27;;;8.00;;
2474;SDS011;1248;48.694;10.160;2022-07-29T14:34:26;9.40;;;8.37;;
2474;SDS011;1248;48.694;10.160;2022-07-29T14:36:53;11.33;;;7.03;;
2474;SDS011;1248;48.694;10.160;2022-07-29T14:39:21;8.00;;;7.30;;
2474;SDS011;1248;48.694;10.160;2022-07-29T14:41:48;9.53;;;8.73;;
2474;SDS011;1248;48.694;10.160;2022-07-29T14:44:16;8.63;;;7.93;;
2474;SDS011;1248;48.694;10.160;2022-07-29T14:46:43;9.60;;;8.63;;
2474;SDS011;1248;48.694;10.160;2022-07-29T14:49:10;9.93;;;8.93;;
2474;SDS011;1248;48.694;10.160;2022-07-29T14:51:39;10.20;;;9.00;;
2474;SDS011;1248;48.694;10.160;2022-07-29T14:54:06;8.97;;;8.17;;
2474;SDS011;1248;48.694;10.160;2022-07-29T14:56:33;12.70;;;8.57;;
2474;SDS011;1248;48.694;10.160;2022-07-29T14:59:00;10.73;;;8.90;;
2474;SDS011;1248;48.694;10.160;2022-07-29T15:01:27;10.77;;;9.37;;
2474;SDS011;1248;48.694;10.160;2022-07-29T15:03:54;13.10;;;10.57;;
2474;SDS011;1248;48.694;10.160;2022-07-29T15:06:21;10.70;;;9.67;;